Postville, Iowa
Current Conditions -  °F | °C
As of 11:15 AM on Thursday 27 Nov 2014 (Local Time) from KDEH Reporting Station
Clear Clear  
Wind Chill: -10°   Ceiling: Unl
Heat Index:   Visibility: 10mi
Dew Point: -4°   Wind: 14mph
Humidity: 61%   Direction: 320°NW
Pressure: 30.43"   Gusts: NA
Location:  43.08°N, 91.57°W
Report Text: KDEH 271715Z AUTO 32012KT 10SM CLR M14/M20 A3043 RMK AO2
Loading
Personal Weather Stations






























Interactive Weather Map New forecast layout! Learn more

10-Day Weather Forecast

Advertisements
Track Severe Weather on mobile